sensor_id;sensor_type;location;lat;lon;timestamp;temperature;humidity
42261;DHT22;27926;48.062;7.474;2023-08-01T00:02:13;20.80;99.90
42261;DHT22;27926;48.062;7.474;2023-08-01T00:04:37;20.80;99.90
42261;DHT22;27926;48.062;7.474;2023-08-01T00:07:02;20.80;99.90
42261;DHT22;27926;48.062;7.474;2023-08-01T00:09:27;20.90;99.90
42261;DHT22;27926;48.062;7.474;2023-08-01T00:11:51;20.90;99.90
42261;DHT22;27926;48.062;7.474;2023-08-01T00:14:16;21.00;99.90
42261;DHT22;27926;48.062;7.474;2023-08-01T00:16:41;21.00;99.90
42261;DHT22;27926;48.062;7.474;2023-08-01T00:19:06;21.10;99.90
42261;DHT22;27926;48.062;7.474;2023-08-01T00:21:30;21.20;99.90
42261;DHT22;27926;48.062;7.474;2023-08-01T00:23:56;21.30;99.90
42261;DHT22;27926;48.062;7.474;2023-08-01T00:26:21;21.30;99.90
42261;DHT22;27926;48.062;7.474;2023-08-01T00:28:45;21.40;99.90
42261;DHT22;27926;48.062;7.474;2023-08-01T00:31:10;21.50;99.90
42261;DHT22;27926;48.062;7.474;2023-08-01T00:33:35;21.60;99.90
42261;DHT22;27926;48.062;7.474;2023-08-01T00:35:59;21.70;99.90
42261;DHT22;27926;48.062;7.474;2023-08-01T00:38:24;21.70;99.90
42261;DHT22;27926;48.062;7.474;2023-08-01T00:40:49;21.70;99.90
42261;DHT22;27926;48.062;7.474;2023-08-01T00:43:14;21.70;99.90
42261;DHT22;27926;48.062;7.474;2023-08-01T00:45:39;21.70;99.90
42261;DHT22;27926;48.062;7.474;2023-08-01T00:48:04;21.70;99.90
42261;DHT22;27926;48.062;7.474;2023-08-01T00:50:28;21.70;99.90
42261;DHT22;27926;48.062;7.474;2023-08-01T00:52:53;21.70;99.90
42261;DHT22;27926;48.062;7.474;2023-08-01T00:55:18;21.70;99.90
42261;DHT22;27926;48.062;7.474;2023-08-01T00:57:43;21.70;99.90
42261;DHT22;27926;48.062;7.474;2023-08-01T01:00:08;21.60;99.90
42261;DHT22;27926;48.062;7.474;2023-08-01T01:02:34;21.60;99.90
42261;DHT22;27926;48.062;7.474;2023-08-01T01:04:58;21.60;99.90
42261;DHT22;27926;48.062;7.474;2023-08-01T01:07:23;21.60;99.90
42261;DHT22;27926;48.062;7.474;2023-08-01T01:09:48;21.50;99.90
42261;DHT22;27926;48.062;7.474;2023-08-01T01:12:13;21.50;99.90
42261;DHT22;27926;48.062;7.474;2023-08-01T01:14:37;21.50;99.90
42261;DHT22;27926;48.062;7.474;2023-08-01T01:17:02;21.40;99.90
42261;DHT22;27926;48.062;7.474;2023-08-01T01:19:26;21.40;99.90
42261;DHT22;27926;48.062;7.474;2023-08-01T01:21:51;21.40;99.90
42261;DHT22;27926;48.062;7.474;2023-08-01T01:24:16;21.40;99.90
42261;DHT22;27926;48.062;7.474;2023-08-01T01:26:42;21.40;99.90
42261;DHT22;27926;48.062;7.474;2023-08-01T01:29:08;21.30;99.90
42261;DHT22;27926;48.062;7.474;2023-08-01T01:31:33;21.30;99.90
42261;DHT22;27926;48.062;7.474;2023-08-01T01:33:59;21.20;99.90
42261;DHT22;27926;48.062;7.474;2023-08-01T01:36:24;21.10;99.90
42261;DHT22;27926;48.062;7.474;2023-08-01T01:38:48;21.00;99.90
42261;DHT22;27926;48.062;7.474;2023-08-01T01:41:13;20.80;99.90
42261;DHT22;27926;48.062;7.474;2023-08-01T01:43:37;20.90;99.90
42261;DHT22;27926;48.062;7.474;2023-08-01T01:46:02;20.80;99.90
42261;DHT22;27926;48.062;7.474;2023-08-01T01:48:27;20.80;99.90
42261;DHT22;27926;48.062;7.474;2023-08-01T01:50:51;20.70;99.90
42261;DHT22;27926;48.062;7.474;2023-08-01T01:53:16;20.70;99.90
42261;DHT22;27926;48.062;7.474;2023-08-01T01:55:40;20.70;99.90
42261;DHT22;27926;48.062;7.474;2023-08-01T01:58:05;20.70;99.90
42261;DHT22;27926;48.062;7.474;2023-08-01T02:00:30;20.60;99.90
42261;DHT22;27926;48.062;7.474;2023-08-01T02:02:55;20.60;99.90
42261;DHT22;27926;48.062;7.474;2023-08-01T02:05:19;20.60;99.90
42261;DHT22;27926;48.062;7.474;2023-08-01T02:07:44;20.50;99.90
42261;DHT22;27926;48.062;7.474;2023-08-01T02:10:09;20.50;99.90
42261;DHT22;27926;48.062;7.474;2023-08-01T02:12:33;20.40;99.90
42261;DHT22;27926;48.062;7.474;2023-08-01T02:15:00;20.40;99.90
42261;DHT22;27926;48.062;7.474;2023-08-01T02:17:24;20.40;99.90
42261;DHT22;27926;48.062;7.474;2023-08-01T02:19:49;20.30;99.90
42261;DHT22;27926;48.062;7.474;2023-08-01T02:22:14;20.30;99.90
42261;DHT22;27926;48.062;7.474;2023-08-01T02:24:38;20.30;99.90
42261;DHT22;27926;48.062;7.474;2023-08-01T02:27:03;20.20;99.90
42261;DHT22;27926;48.062;7.474;2023-08-01T02:29:27;20.20;99.90
42261;DHT22;27926;48.062;7.474;2023-08-01T02:31:52;20.10;99.90
42261;DHT22;27926;48.062;7.474;2023-08-01T02:34:17;20.10;99.90
42261;DHT22;27926;48.062;7.474;2023-08-01T02:36:41;20.10;99.90
42261;DHT22;27926;48.062;7.474;2023-08-01T02:39:06;20.10;99.90
42261;DHT22;27926;48.062;7.474;2023-08-01T02:41:31;20.10;99.90
42261;DHT22;27926;48.062;7.474;2023-08-01T02:43:55;20.10;99.90
42261;DHT22;27926;48.062;7.474;2023-08-01T02:46:20;20.10;99.90
42261;DHT22;27926;48.062;7.474;2023-08-01T02:48:45;20.10;99.90
42261;DHT22;27926;48.062;7.474;2023-08-01T02:51:09;20.10;99.90
42261;DHT22;27926;48.062;7.474;2023-08-01T02:53:37;20.00;99.90
42261;DHT22;27926;48.062;7.474;2023-08-01T02:56:02;19.90;99.90
42261;DHT22;27926;48.062;7.474;2023-08-01T02:58:27;19.90;99.90
42261;DHT22;27926;48.062;7.474;2023-08-01T03:00:52;20.00;99.90
42261;DHT22;27926;48.062;7.474;2023-08-01T03:03:16;20.20;99.90
42261;DHT22;27926;48.062;7.474;2023-08-01T03:05:41;20.40;99.90
42261;DHT22;27926;48.062;7.474;2023-08-01T03:08:05;20.50;99.90
42261;DHT22;27926;48.062;7.474;2023-08-01T03:10:30;20.60;99.90
42261;DHT22;27926;48.062;7.474;2023-08-01T03:12:55;20.60;99.90
42261;DHT22;27926;48.062;7.474;2023-08-01T03:15:19;20.70;99.90
42261;DHT22;27926;48.062;7.474;2023-08-01T03:17:46;20.80;99.90
42261;DHT22;27926;48.062;7.474;2023-08-01T03:20:11;20.80;99.90
42261;DHT22;27926;48.062;7.474;2023-08-01T03:22:39;20.90;99.90
42261;DHT22;27926;48.062;7.474;2023-08-01T03:25:05;20.90;99.90
42261;DHT22;27926;48.062;7.474;2023-08-01T03:27:31;20.90;99.90
42261;DHT22;27926;48.062;7.474;2023-08-01T03:29:56;20.90;99.90
42261;DHT22;27926;48.062;7.474;2023-08-01T03:32:20;20.80;99.90
42261;DHT22;27926;48.062;7.474;2023-08-01T03:34:45;20.70;99.90
42261;DHT22;27926;48.062;7.474;2023-08-01T03:37:10;20.60;99.90
42261;DHT22;27926;48.062;7.474;2023-08-01T03:39:34;20.50;99.90
42261;DHT22;27926;48.062;7.474;2023-08-01T03:41:59;20.40;99.90
42261;DHT22;27926;48.062;7.474;2023-08-01T03:44:23;20.30;99.90
42261;DHT22;27926;48.062;7.474;2023-08-01T03:46:48;20.10;99.90
42261;DHT22;27926;48.062;7.474;2023-08-01T03:49:16;19.90;99.90
42261;DHT22;27926;48.062;7.474;2023-08-01T03:51:40;19.80;99.90
42261;DHT22;27926;48.062;7.474;2023-08-01T03:54:05;19.70;99.90
42261;DHT22;27926;48.062;7.474;2023-08-01T03:56:30;19.50;99.90
42261;DHT22;27926;48.062;7.474;2023-08-01T03:58:55;19.30;99.90
42261;DHT22;27926;48.062;7.474;2023-08-01T04:01:19;19.10;99.90
42261;DHT22;27926;48.062;7.474;2023-08-01T04:03:46;19.00;99.90
42261;DHT22;27926;48.062;7.474;2023-08-01T04:06:10;18.80;99.90
42261;DHT22;27926;48.062;7.474;2023-08-01T04:08:40;18.60;99.90
42261;DHT22;27926;48.062;7.474;2023-08-01T04:11:04;18.40;99.90
42261;DHT22;27926;48.062;7.474;2023-08-01T04:13:29;18.20;99.90
42261;DHT22;27926;48.062;7.474;2023-08-01T04:15:53;18.10;99.90
42261;DHT22;27926;48.062;7.474;2023-08-01T04:18:18;18.00;99.90
42261;DHT22;27926;48.062;7.474;2023-08-01T04:20:43;17.90;99.90
42261;DHT22;27926;48.062;7.474;2023-08-01T04:23:07;17.90;99.90
42261;DHT22;27926;48.062;7.474;2023-08-01T04:25:32;17.80;99.90
42261;DHT22;27926;48.062;7.474;2023-08-01T04:27:57;17.80;99.90
42261;DHT22;27926;48.062;7.474;2023-08-01T04:30:21;17.80;99.90
42261;DHT22;27926;48.062;7.474;2023-08-01T04:32:46;17.80;99.90
42261;DHT22;27926;48.062;7.474;2023-08-01T04:35:11;17.80;99.90
42261;DHT22;27926;48.062;7.474;2023-08-01T04:37:35;17.70;99.90
42261;DHT22;27926;48.062;7.474;2023-08-01T04:40:00;17.70;99.90
42261;DHT22;27926;48.062;7.474;2023-08-01T04:42:25;17.80;99.90
42261;DHT22;27926;48.062;7.474;2023-08-01T04:49:58;17.60;99.90
42261;DHT22;27926;48.062;7.474;2023-08-01T04:52:22;17.60;99.90
42261;DHT22;27926;48.062;7.474;2023-08-01T04:54:47;17.60;99.90
42261;DHT22;27926;48.062;7.474;2023-08-01T05:04:55;17.60;99.90
42261;DHT22;27926;48.062;7.474;2023-08-01T05:12:44;17.60;99.90
42261;DHT22;27926;48.062;7.474;2023-08-01T05:15:09;17.60;99.90
42261;DHT22;27926;48.062;7.474;2023-08-01T05:17:34;17.60;99.90
42261;DHT22;27926;48.062;7.474;2023-08-01T05:19:58;17.60;99.90
42261;DHT22;27926;48.062;7.474;2023-08-01T05:22:23;17.60;99.90
42261;DHT22;27926;48.062;7.474;2023-08-01T05:27:22;17.60;99.90
42261;DHT22;27926;48.062;7.474;2023-08-01T05:32:21;17.60;99.90
42261;DHT22;27926;48.062;7.474;2023-08-01T05:34:45;17.60;99.90
42261;DHT22;27926;48.062;7.474;2023-08-01T05:37:10;17.60;99.90
42261;DHT22;27926;48.062;7.474;2023-08-01T05:39:36;17.60;99.90
42261;DHT22;27926;48.062;7.474;2023-08-01T05:42:01;17.70;99.90
42261;DHT22;27926;48.062;7.474;2023-08-01T05:44:25;17.70;99.90
42261;DHT22;27926;48.062;7.474;2023-08-01T05:46:52;17.70;99.90
42261;DHT22;27926;48.062;7.474;2023-08-01T05:54:26;17.70;99.90
42261;DHT22;27926;48.062;7.474;2023-08-01T06:33:14;18.50;99.90
42261;DHT22;27926;48.062;7.474;2023-08-01T06:35:39;18.50;99.90
42261;DHT22;27926;48.062;7.474;2023-08-01T08:13:52;18.30;99.90
42261;DHT22;27926;48.062;7.474;2023-08-01T08:16:16;18.70;99.90
42261;DHT22;27926;48.062;7.474;2023-08-01T08:18:42;18.90;99.90
42261;DHT22;27926;48.062;7.474;2023-08-01T08:21:06;19.00;99.90
42261;DHT22;27926;48.062;7.474;2023-08-01T08:23:31;19.10;99.90
42261;DHT22;27926;48.062;7.474;2023-08-01T08:25:55;19.00;99.90
42261;DHT22;27926;48.062;7.474;2023-08-01T08:28:29;19.00;99.90
42261;DHT22;27926;48.062;7.474;2023-08-01T08:30:54;19.00;99.90
42261;DHT22;27926;48.062;7.474;2023-08-01T08:33:21;19.10;99.90
42261;DHT22;27926;48.062;7.474;2023-08-01T08:35:46;19.10;99.90
42261;DHT22;27926;48.062;7.474;2023-08-01T08:38:11;18.90;99.90
42261;DHT22;27926;48.062;7.474;2023-08-01T08:40:40;18.80;99.90
42261;DHT22;27926;48.062;7.474;2023-08-01T08:43:06;18.70;99.90
42261;DHT22;27926;48.062;7.474;2023-08-01T08:45:34;18.60;99.90
42261;DHT22;27926;48.062;7.474;2023-08-01T08:48:02;18.60;99.90
42261;DHT22;27926;48.062;7.474;2023-08-01T08:50:31;18.60;99.90
42261;DHT22;27926;48.062;7.474;2023-08-01T08:52:58;18.60;99.90
42261;DHT22;27926;48.062;7.474;2023-08-01T08:55:22;18.60;99.90
42261;DHT22;27926;48.062;7.474;2023-08-01T08:57:50;18.60;99.90
42261;DHT22;27926;48.062;7.474;2023-08-01T09:00:17;18.60;99.90
42261;DHT22;27926;48.062;7.474;2023-08-01T09:02:42;18.70;99.90
42261;DHT22;27926;48.062;7.474;2023-08-01T09:05:07;18.70;99.90
42261;DHT22;27926;48.062;7.474;2023-08-01T09:07:33;18.70;99.90
42261;DHT22;27926;48.062;7.474;2023-08-01T09:10:00;18.80;99.90
42261;DHT22;27926;48.062;7.474;2023-08-01T09:12:25;18.90;99.90
42261;DHT22;27926;48.062;7.474;2023-08-01T09:14:51;19.00;99.90
42261;DHT22;27926;48.062;7.474;2023-08-01T09:17:16;19.00;99.90
42261;DHT22;27926;48.062;7.474;2023-08-01T09:19:42;19.00;99.90
42261;DHT22;27926;48.062;7.474;2023-08-01T09:22:16;19.00;99.90
42261;DHT22;27926;48.062;7.474;2023-08-01T09:24:51;19.00;99.90
42261;DHT22;27926;48.062;7.474;2023-08-01T09:27:16;19.10;99.90
42261;DHT22;27926;48.062;7.474;2023-08-01T09:29:41;19.30;99.90
42261;DHT22;27926;48.062;7.474;2023-08-01T09:32:13;19.50;99.90
42261;DHT22;27926;48.062;7.474;2023-08-01T09:34:41;19.60;99.90
42261;DHT22;27926;48.062;7.474;2023-08-01T09:37:06;19.70;99.90
42261;DHT22;27926;48.062;7.474;2023-08-01T09:39:31;19.80;99.90
42261;DHT22;27926;48.062;7.474;2023-08-01T09:41:57;20.10;99.90
42261;DHT22;27926;48.062;7.474;2023-08-01T09:44:21;20.30;99.90
42261;DHT22;27926;48.062;7.474;2023-08-01T09:46:57;20.50;99.90
42261;DHT22;27926;48.062;7.474;2023-08-01T09:49:22;20.70;99.90
42261;DHT22;27926;48.062;7.474;2023-08-01T09:51:50;21.00;99.90
42261;DHT22;27926;48.062;7.474;2023-08-01T09:54:20;21.00;99.90
42261;DHT22;27926;48.062;7.474;2023-08-01T09:56:48;21.10;99.90
42261;DHT22;27926;48.062;7.474;2023-08-01T09:59:19;21.30;99.90
42261;DHT22;27926;48.062;7.474;2023-08-01T10:01:44;21.40;99.90
42261;DHT22;27926;48.062;7.474;2023-08-01T10:04:11;21.40;99.90
42261;DHT22;27926;48.062;7.474;2023-08-01T10:06:37;21.40;99.90
42261;DHT22;27926;48.062;7.474;2023-08-01T10:09:02;21.50;99.90
42261;DHT22;27926;48.062;7.474;2023-08-01T10:11:30;21.80;99.90
42261;DHT22;27926;48.062;7.474;2023-08-01T10:13:54;22.30;99.90
42261;DHT22;27926;48.062;7.474;2023-08-01T10:16:20;22.90;99.90
42261;DHT22;27926;48.062;7.474;2023-08-01T10:18:46;23.20;99.90
42261;DHT22;27926;48.062;7.474;2023-08-01T10:21:16;23.10;99.90
42261;DHT22;27926;48.062;7.474;2023-08-01T10:23:42;22.90;99.90
42261;DHT22;27926;48.062;7.474;2023-08-01T10:26:09;22.80;99.90
42261;DHT22;27926;48.062;7.474;2023-08-01T10:28:40;22.80;99.90
42261;DHT22;27926;48.062;7.474;2023-08-01T10:33:33;23.00;99.90
42261;DHT22;27926;48.062;7.474;2023-08-01T10:35:58;23.10;99.90
42261;DHT22;27926;48.062;7.474;2023-08-01T10:38:23;23.40;99.90
42261;DHT22;27926;48.062;7.474;2023-08-01T10:40:47;23.10;99.90
42261;DHT22;27926;48.062;7.474;2023-08-01T10:43:22;22.70;99.90
42261;DHT22;27926;48.062;7.474;2023-08-01T10:46:01;22.60;99.90
42261;DHT22;27926;48.062;7.474;2023-08-01T10:48:26;22.80;99.90
42261;DHT22;27926;48.062;7.474;2023-08-01T10:50:57;23.10;99.90
42261;DHT22;27926;48.062;7.474;2023-08-01T10:53:22;23.10;99.90
42261;DHT22;27926;48.062;7.474;2023-08-01T10:55:47;23.00;99.90
42261;DHT22;27926;48.062;7.474;2023-08-01T10:58:12;23.00;99.90
42261;DHT22;27926;48.062;7.474;2023-08-01T11:00:37;23.10;99.90
42261;DHT22;27926;48.062;7.474;2023-08-01T11:03:02;23.20;99.90
42261;DHT22;27926;48.062;7.474;2023-08-01T11:05:27;23.40;99.90
42261;DHT22;27926;48.062;7.474;2023-08-01T11:07:55;23.30;99.90
42261;DHT22;27926;48.062;7.474;2023-08-01T11:10:29;23.10;99.90
42261;DHT22;27926;48.062;7.474;2023-08-01T11:12:54;23.30;99.90
42261;DHT22;27926;48.062;7.474;2023-08-01T11:15:20;23.60;99.90
42261;DHT22;27926;48.062;7.474;2023-08-01T11:17:53;23.70;99.90
42261;DHT22;27926;48.062;7.474;2023-08-01T11:20:19;23.70;99.90
42261;DHT22;27926;48.062;7.474;2023-08-01T11:22:59;23.90;99.90
42261;DHT22;27926;48.062;7.474;2023-08-01T11:27:57;24.00;99.90
42261;DHT22;27926;48.062;7.474;2023-08-01T11:30:32;24.00;99.90
42261;DHT22;27926;48.062;7.474;2023-08-01T11:33:14;24.00;99.90
42261;DHT22;27926;48.062;7.474;2023-08-01T11:35:40;23.80;99.90
42261;DHT22;27926;48.062;7.474;2023-08-01T11:38:05;23.50;99.90
42261;DHT22;27926;48.062;7.474;2023-08-01T11:40:30;23.20;99.90
42261;DHT22;27926;48.062;7.474;2023-08-01T11:42:57;23.00;99.90
42261;DHT22;27926;48.062;7.474;2023-08-01T11:45:21;23.00;99.90
42261;DHT22;27926;48.062;7.474;2023-08-01T11:47:47;22.90;99.90
42261;DHT22;27926;48.062;7.474;2023-08-01T11:50:12;22.80;99.90
42261;DHT22;27926;48.062;7.474;2023-08-01T11:52:37;22.70;99.90
42261;DHT22;27926;48.062;7.474;2023-08-01T11:55:01;22.50;99.90
42261;DHT22;27926;48.062;7.474;2023-08-01T11:57:26;22.60;99.90
42261;DHT22;27926;48.062;7.474;2023-08-01T11:59:54;22.70;99.90
42261;DHT22;27926;48.062;7.474;2023-08-01T12:02:27;23.00;99.90
42261;DHT22;27926;48.062;7.474;2023-08-01T12:04:53;23.30;99.90
42261;DHT22;27926;48.062;7.474;2023-08-01T12:07:18;23.40;99.90
42261;DHT22;27926;48.062;7.474;2023-08-01T12:09:44;23.60;99.90
42261;DHT22;27926;48.062;7.474;2023-08-01T12:12:09;23.80;99.90
42261;DHT22;27926;48.062;7.474;2023-08-01T12:14:33;24.10;99.90
42261;DHT22;27926;48.062;7.474;2023-08-01T12:16:58;24.20;99.90
42261;DHT22;27926;48.062;7.474;2023-08-01T12:19:22;24.20;99.90
42261;DHT22;27926;48.062;7.474;2023-08-01T12:21:48;24.20;99.90
42261;DHT22;27926;48.062;7.474;2023-08-01T12:24:13;24.10;99.90
42261;DHT22;27926;48.062;7.474;2023-08-01T12:26:37;24.00;99.90
42261;DHT22;27926;48.062;7.474;2023-08-01T12:29:02;24.20;99.90
42261;DHT22;27926;48.062;7.474;2023-08-01T12:31:26;24.10;99.70
42261;DHT22;27926;48.062;7.474;2023-08-01T12:33:51;24.10;99.40
42261;DHT22;27926;48.062;7.474;2023-08-01T12:36:17;24.10;99.20
42261;DHT22;27926;48.062;7.474;2023-08-01T12:38:42;24.10;99.30
42261;DHT22;27926;48.062;7.474;2023-08-01T12:41:07;24.00;98.30
42261;DHT22;27926;48.062;7.474;2023-08-01T12:43:32;24.00;98.70
42261;DHT22;27926;48.062;7.474;2023-08-01T12:45:56;24.10;98.80
42261;DHT22;27926;48.062;7.474;2023-08-01T12:48:22;24.20;99.00
42261;DHT22;27926;48.062;7.474;2023-08-01T12:50:47;24.30;98.80
42261;DHT22;27926;48.062;7.474;2023-08-01T12:53:17;24.40;98.50
42261;DHT22;27926;48.062;7.474;2023-08-01T12:55:43;24.50;97.60
42261;DHT22;27926;48.062;7.474;2023-08-01T12:58:09;24.50;98.60
42261;DHT22;27926;48.062;7.474;2023-08-01T13:00:33;24.50;98.30
42261;DHT22;27926;48.062;7.474;2023-08-01T13:02:58;24.70;98.00
42261;DHT22;27926;48.062;7.474;2023-08-01T13:05:22;24.70;97.60
42261;DHT22;27926;48.062;7.474;2023-08-01T13:07:47;25.00;95.80
42261;DHT22;27926;48.062;7.474;2023-08-01T13:10:14;25.00;96.60
42261;DHT22;27926;48.062;7.474;2023-08-01T13:12:38;25.00;96.20
42261;DHT22;27926;48.062;7.474;2023-08-01T13:15:04;24.90;95.80
42261;DHT22;27926;48.062;7.474;2023-08-01T13:17:29;24.90;96.10
42261;DHT22;27926;48.062;7.474;2023-08-01T13:19:56;25.00;96.00
42261;DHT22;27926;48.062;7.474;2023-08-01T13:22:20;25.10;96.40
42261;DHT22;27926;48.062;7.474;2023-08-01T13:24:45;24.90;95.90
42261;DHT22;27926;48.062;7.474;2023-08-01T13:27:11;24.90;97.10
42261;DHT22;27926;48.062;7.474;2023-08-01T13:29:36;24.70;96.70
42261;DHT22;27926;48.062;7.474;2023-08-01T13:32:00;24.30;98.10
42261;DHT22;27926;48.062;7.474;2023-08-01T13:34:25;24.00;99.50
42261;DHT22;27926;48.062;7.474;2023-08-01T13:36:49;23.80;98.90
42261;DHT22;27926;48.062;7.474;2023-08-01T13:39:14;23.60;98.90
42261;DHT22;27926;48.062;7.474;2023-08-01T13:41:38;23.50;98.80
42261;DHT22;27926;48.062;7.474;2023-08-01T13:44:03;23.60;99.40
42261;DHT22;27926;48.062;7.474;2023-08-01T13:46:28;23.60;99.10
42261;DHT22;27926;48.062;7.474;2023-08-01T13:48:52;23.50;98.90
42261;DHT22;27926;48.062;7.474;2023-08-01T13:51:18;23.40;99.00
42261;DHT22;27926;48.062;7.474;2023-08-01T13:53:43;23.40;99.10
42261;DHT22;27926;48.062;7.474;2023-08-01T13:56:08;23.40;99.50
42261;DHT22;27926;48.062;7.474;2023-08-01T13:58:33;23.50;99.60
42261;DHT22;27926;48.062;7.474;2023-08-01T14:01:02;23.60;99.50
42261;DHT22;27926;48.062;7.474;2023-08-01T14:03:27;23.80;99.00
42261;DHT22;27926;48.062;7.474;2023-08-01T14:05:52;23.90;98.30
42261;DHT22;27926;48.062;7.474;2023-08-01T14:08:16;24.00;98.70
42261;DHT22;27926;48.062;7.474;2023-08-01T14:10:42;24.40;98.30
42261;DHT22;27926;48.062;7.474;2023-08-01T14:13:07;24.80;97.50
42261;DHT22;27926;48.062;7.474;2023-08-01T14:15:31;24.90;97.00
42261;DHT22;27926;48.062;7.474;2023-08-01T14:17:56;25.00;97.20
42261;DHT22;27926;48.062;7.474;2023-08-01T14:20:20;25.10;96.40
42261;DHT22;27926;48.062;7.474;2023-08-01T14:22:45;25.20;96.20
42261;DHT22;27926;48.062;7.474;2023-08-01T14:25:10;25.20;96.40
42261;DHT22;27926;48.062;7.474;2023-08-01T14:27:35;25.00;96.30
42261;DHT22;27926;48.062;7.474;2023-08-01T14:29:59;25.00;96.80
42261;DHT22;27926;48.062;7.474;2023-08-01T14:32:24;24.90;96.10
42261;DHT22;27926;48.062;7.474;2023-08-01T14:34:49;24.70;96.40
42261;DHT22;27926;48.062;7.474;2023-08-01T14:37:13;24.60;96.50
42261;DHT22;27926;48.062;7.474;2023-08-01T14:39:38;24.60;96.70
42261;DHT22;27926;48.062;7.474;2023-08-01T14:42:03;24.70;96.50
42261;DHT22;27926;48.062;7.474;2023-08-01T14:44:27;24.90;95.90
42261;DHT22;27926;48.062;7.474;2023-08-01T14:46:52;24.80;95.50
42261;DHT22;27926;48.062;7.474;2023-08-01T14:49:18;24.80;96.40
42261;DHT22;27926;48.062;7.474;2023-08-01T14:51:43;24.90;96.30
42261;DHT22;27926;48.062;7.474;2023-08-01T14:54:08;25.10;96.20
42261;DHT22;27926;48.062;7.474;2023-08-01T14:56:33;25.10;95.80
42261;DHT22;27926;48.062;7.474;2023-08-01T14:58:57;25.20;96.30
42261;DHT22;27926;48.062;7.474;2023-08-01T15:01:23;25.10;96.30
42261;DHT22;27926;48.062;7.474;2023-08-01T15:03:47;25.00;96.20
42261;DHT22;27926;48.062;7.474;2023-08-01T15:06:12;24.80;96.40
42261;DHT22;27926;48.062;7.474;2023-08-01T15:08:39;24.50;95.90
42261;DHT22;27926;48.062;7.474;2023-08-01T15:11:05;24.40;96.90
42261;DHT22;27926;48.062;7.474;2023-08-01T15:13:30;24.60;96.80
42261;DHT22;27926;48.062;7.474;2023-08-01T15:15:55;24.80;96.50
42261;DHT22;27926;48.062;7.474;2023-08-01T15:18:19;24.90;97.00
42261;DHT22;27926;48.062;7.474;2023-08-01T15:20:44;24.90;96.10
42261;DHT22;27926;48.062;7.474;2023-08-01T15:23:09;24.80;96.60
42261;DHT22;27926;48.062;7.474;2023-08-01T15:25:33;25.10;96.60
42261;DHT22;27926;48.062;7.474;2023-08-01T15:27:58;25.10;96.40
42261;DHT22;27926;48.062;7.474;2023-08-01T15:30:23;24.90;96.20
42261;DHT22;27926;48.062;7.474;2023-08-01T15:32:47;24.70;96.00
42261;DHT22;27926;48.062;7.474;2023-08-01T15:35:12;24.50;96.30
42261;DHT22;27926;48.062;7.474;2023-08-01T15:37:38;24.20;96.50
42261;DHT22;27926;48.062;7.474;2023-08-01T15:40:03;24.00;96.40
42261;DHT22;27926;48.062;7.474;2023-08-01T15:42:28;23.90;96.90
42261;DHT22;27926;48.062;7.474;2023-08-01T15:44:53;24.10;96.60
42261;DHT22;27926;48.062;7.474;2023-08-01T15:47:17;24.20;96.50
42261;DHT22;27926;48.062;7.474;2023-08-01T15:49:42;24.30;96.80
42261;DHT22;27926;48.062;7.474;2023-08-01T15:52:06;24.30;96.70
42261;DHT22;27926;48.062;7.474;2023-08-01T15:54:31;23.90;96.00
42261;DHT22;27926;48.062;7.474;2023-08-01T15:56:57;23.60;96.00
42261;DHT22;27926;48.062;7.474;2023-08-01T15:59:21;23.30;96.20
42261;DHT22;27926;48.062;7.474;2023-08-01T16:01:46;23.20;96.40
42261;DHT22;27926;48.062;7.474;2023-08-01T16:04:10;23.10;95.80
42261;DHT22;27926;48.062;7.474;2023-08-01T16:06:36;23.10;96.50
42261;DHT22;27926;48.062;7.474;2023-08-01T16:09:01;23.10;96.70
42261;DHT22;27926;48.062;7.474;2023-08-01T16:11:26;23.20;96.90
42261;DHT22;27926;48.062;7.474;2023-08-01T16:13:50;23.20;96.30
42261;DHT22;27926;48.062;7.474;2023-08-01T16:16:15;23.10;96.20
42261;DHT22;27926;48.062;7.474;2023-08-01T16:18:39;23.20;96.30
42261;DHT22;27926;48.062;7.474;2023-08-01T16:21:04;23.20;96.10
42261;DHT22;27926;48.062;7.474;2023-08-01T16:23:28;23.10;96.20
42261;DHT22;27926;48.062;7.474;2023-08-01T16:25:53;22.90;96.40
42261;DHT22;27926;48.062;7.474;2023-08-01T16:28:18;22.90;96.70
42261;DHT22;27926;48.062;7.474;2023-08-01T16:30:45;22.80;96.80
42261;DHT22;27926;48.062;7.474;2023-08-01T16:33:10;22.70;96.90
42261;DHT22;27926;48.062;7.474;2023-08-01T16:35:35;22.60;97.10
42261;DHT22;27926;48.062;7.474;2023-08-01T16:38:00;22.60;97.00
42261;DHT22;27926;48.062;7.474;2023-08-01T16:40:24;22.60;97.20
42261;DHT22;27926;48.062;7.474;2023-08-01T16:42:49;22.60;97.30
42261;DHT22;27926;48.062;7.474;2023-08-01T16:45:17;22.60;97.10
42261;DHT22;27926;48.062;7.474;2023-08-01T16:47:41;22.60;96.40
42261;DHT22;27926;48.062;7.474;2023-08-01T16:50:14;22.60;96.20
42261;DHT22;27926;48.062;7.474;2023-08-01T16:52:39;22.70;96.50
42261;DHT22;27926;48.062;7.474;2023-08-01T16:55:04;22.60;95.50
42261;DHT22;27926;48.062;7.474;2023-08-01T16:57:28;22.60;95.70
42261;DHT22;27926;48.062;7.474;2023-08-01T16:59:53;22.60;95.60
42261;DHT22;27926;48.062;7.474;2023-08-01T17:02:18;22.60;95.60
42261;DHT22;27926;48.062;7.474;2023-08-01T17:04:44;22.60;95.00
42261;DHT22;27926;48.062;7.474;2023-08-01T17:07:09;22.60;94.90
42261;DHT22;27926;48.062;7.474;2023-08-01T17:09:34;22.50;95.40
42261;DHT22;27926;48.062;7.474;2023-08-01T17:11:58;22.40;95.60
42261;DHT22;27926;48.062;7.474;2023-08-01T17:14:23;22.40;95.00
42261;DHT22;27926;48.062;7.474;2023-08-01T17:16:48;22.30;95.20
42261;DHT22;27926;48.062;7.474;2023-08-01T17:19:13;22.30;95.70
42261;DHT22;27926;48.062;7.474;2023-08-01T17:21:37;22.20;95.80
42261;DHT22;27926;48.062;7.474;2023-08-01T17:24:02;22.20;96.40
42261;DHT22;27926;48.062;7.474;2023-08-01T17:26:27;22.20;96.50
42261;DHT22;27926;48.062;7.474;2023-08-01T17:28:52;22.00;96.60
42261;DHT22;27926;48.062;7.474;2023-08-01T17:31:16;22.00;96.50
42261;DHT22;27926;48.062;7.474;2023-08-01T17:33:42;21.80;96.80
42261;DHT22;27926;48.062;7.474;2023-08-01T17:36:06;21.80;97.30
42261;DHT22;27926;48.062;7.474;2023-08-01T17:38:31;21.70;97.50
42261;DHT22;27926;48.062;7.474;2023-08-01T17:40:56;21.70;97.60
42261;DHT22;27926;48.062;7.474;2023-08-01T17:43:20;21.60;97.70
42261;DHT22;27926;48.062;7.474;2023-08-01T17:45:45;21.70;97.80
42261;DHT22;27926;48.062;7.474;2023-08-01T17:48:09;21.70;97.70
42261;DHT22;27926;48.062;7.474;2023-08-01T17:50:34;21.70;97.80
42261;DHT22;27926;48.062;7.474;2023-08-01T17:52:59;21.80;97.70
42261;DHT22;27926;48.062;7.474;2023-08-01T17:55:23;21.80;97.90
42261;DHT22;27926;48.062;7.474;2023-08-01T17:57:48;21.90;98.00
42261;DHT22;27926;48.062;7.474;2023-08-01T18:00:13;21.90;97.60
42261;DHT22;27926;48.062;7.474;2023-08-01T18:02:38;21.90;98.10
42261;DHT22;27926;48.062;7.474;2023-08-01T18:05:03;21.80;98.10